createdAt,value
2017-09-04T12:40:27.484Z,7476
2017-09-04T12:40:31.571Z,7548
2017-09-04T12:40:35.393Z,7560
2017-09-04T12:40:39.494Z,7572
2017-09-04T12:40:43.452Z,7588
2017-09-04T12:40:47.659Z,7592
2017-09-04T12:40:51.865Z,7608
2017-09-04T12:40:56.184Z,7620
2017-09-04T12:41:00.489Z,7596
2017-09-04T12:41:04.754Z,7560
2017-09-04T12:41:08.853Z,7548
2017-09-04T12:41:12.813Z,7528
2017-09-04T12:41:16.765Z,7512
2017-09-04T12:41:20.962Z,7512
2017-09-04T12:41:25.167Z,7504
2017-09-04T12:41:29.257Z,7480
2017-09-04T12:41:33.245Z,7500
2017-09-04T12:41:37.459Z,7604
2017-09-04T12:41:41.423Z,7748
2017-09-04T12:41:45.531Z,8192
2017-09-04T12:41:49.624Z,15960
2017-09-04T12:41:53.712Z,31968
2017-09-04T12:41:57.928Z,29024
2017-09-04T12:42:01.911Z,28864
2017-09-04T12:42:06.124Z,34304
2017-09-04T12:42:10.204Z,35520
2017-09-04T12:42:14.413Z,35264
2017-09-04T12:42:18.633Z,16484
2017-09-04T12:42:22.712Z,9240
2017-09-04T12:42:26.801Z,9740
2017-09-04T12:42:30.870Z,19168
2017-09-04T12:42:35.090Z,23552
2017-09-04T12:42:39.168Z,17408
2017-09-04T12:42:43.132Z,12760
2017-09-04T12:42:47.094Z,12568
2017-09-04T12:42:51.178Z,15188
2017-09-04T12:42:55.131Z,23264
2017-09-04T12:42:59.079Z,35104
2017-09-04T12:43:03.707Z,41760
2017-09-04T12:43:07.932Z,45856
2017-09-04T12:43:12.009Z,47488
2017-09-04T12:43:15.964Z,47968
2017-09-04T12:43:20.186Z,48128
2017-09-04T12:43:24.389Z,48128
2017-09-04T12:43:28.585Z,48064
2017-09-04T12:43:32.669Z,48320
2017-09-04T12:43:36.749Z,48288
2017-09-04T12:43:40.982Z,48576
2017-09-04T12:43:45.314Z,48480
2017-09-04T12:43:49.413Z,47264
2017-09-04T12:43:53.510Z,44160
2017-09-04T12:43:57.964Z,33216
2017-09-04T12:44:02.308Z,20224
2017-09-04T12:44:06.784Z,18624
2017-09-04T12:44:10.877Z,10876
2017-09-04T12:44:15.213Z,10516
2017-09-04T12:44:19.426Z,10032
2017-09-04T12:44:23.385Z,9768
2017-09-04T12:44:27.601Z,9744
2017-09-04T12:44:31.841Z,9648
2017-09-04T12:44:36.037Z,9792
2017-09-04T12:44:40.232Z,9720
2017-09-04T12:44:44.442Z,9580
2017-09-04T12:44:48.282Z,9244
2017-09-04T12:44:52.253Z,9040
2017-09-04T12:44:56.484Z,8932
2017-09-04T12:45:00.702Z,8856
2017-09-04T12:45:04.757Z,8888
2017-09-04T12:45:09.084Z,8880
2017-09-04T12:45:13.042Z,8924
2017-09-04T12:45:17.250Z,8972
2017-09-04T12:45:21.572Z,9036
2017-09-04T12:45:25.395Z,8988
2017-09-04T12:45:29.481Z,9032
2017-09-04T12:45:33.984Z,9136
2017-09-04T12:45:37.826Z,9232
2017-09-04T12:45:41.917Z,9364
2017-09-04T12:45:46.280Z,9528
2017-09-04T12:45:50.368Z,9712
2017-09-04T12:45:54.081Z,9900
2017-09-04T12:45:58.173Z,10148
2017-09-04T12:46:02.709Z,10416
2017-09-04T12:46:06.806Z,10660
2017-09-04T12:46:11.156Z,10948
2017-09-04T12:46:15.231Z,11408
2017-09-04T12:46:19.698Z,12080
2017-09-04T12:46:23.783Z,13480
2017-09-04T12:46:28.021Z,16288
2017-09-04T12:46:31.991Z,19552
2017-09-04T12:46:36.191Z,24096
2017-09-04T12:46:40.411Z,28960
2017-09-04T12:46:44.379Z,32000
2017-09-04T12:46:48.202Z,27520
2017-09-04T12:46:52.158Z,22528
2017-09-04T12:46:56.246Z,15668
2017-09-04T12:47:00.318Z,15372
2017-09-04T12:47:04.418Z,21120
2017-09-04T12:47:08.762Z,30528
2017-09-04T12:47:12.731Z,38560
2017-09-04T12:47:16.814Z,45248
2017-09-04T12:47:21.134Z,51680
2017-09-04T12:47:25.340Z,54080
2017-09-04T12:47:29.557Z,54240
2017-09-04T12:47:33.887Z,54528
2017-09-04T12:47:37.729Z,54624
2017-09-04T12:47:41.941Z,52800
2017-09-04T12:47:46.161Z,18592
2017-09-04T12:47:50.230Z,15900
2017-09-04T12:47:54.554Z,23840
2017-09-04T12:47:58.779Z,14980
2017-09-04T12:48:03.329Z,19232
2017-09-04T12:48:07.283Z,10212
2017-09-04T12:48:11.244Z,9852
2017-09-04T12:48:15.577Z,9716
2017-09-04T12:48:19.782Z,9620
2017-09-04T12:48:23.986Z,9628
2017-09-04T12:48:27.833Z,9556
2017-09-04T12:48:31.913Z,9696
2017-09-04T12:48:36.243Z,9380
2017-09-04T12:48:40.196Z,9164
2017-09-04T12:48:44.410Z,9092
2017-09-04T12:48:48.107Z,9056
2017-09-04T12:48:52.061Z,9024
2017-09-04T12:48:56.151Z,9032
2017-09-04T12:49:00.369Z,9148
2017-09-04T12:49:04.583Z,10076
2017-09-04T12:49:08.677Z,13104
2017-09-04T12:49:12.891Z,10456
2017-09-04T12:49:17.109Z,10464
2017-09-04T12:49:21.323Z,11948
2017-09-04T12:49:25.431Z,13444
2017-09-04T12:49:29.261Z,15548
2017-09-04T12:49:33.587Z,13492
2017-09-04T12:49:37.804Z,12816
2017-09-04T12:49:41.995Z,10136
2017-09-04T12:49:46.082Z,9360
2017-09-04T12:49:50.055Z,9264
2017-09-04T12:49:54.383Z,9160
2017-09-04T12:49:58.334Z,9076
2017-09-04T12:50:02.569Z,9012
2017-09-04T12:50:06.534Z,8968
2017-09-04T12:50:10.752Z,8936
2017-09-04T12:50:14.708Z,8920
2017-09-04T12:50:18.665Z,8924
2017-09-04T12:50:23.008Z,8972
2017-09-04T12:50:27.091Z,9064
2017-09-04T12:50:31.053Z,9184
2017-09-04T12:50:35.129Z,9328
2017-09-04T12:50:39.212Z,9464
2017-09-04T12:50:43.174Z,9616
2017-09-04T12:50:47.396Z,9776
2017-09-04T12:50:51.483Z,9920
2017-09-04T12:50:55.686Z,10124
2017-09-04T12:50:59.647Z,10528
2017-09-04T12:51:04.144Z,12144
2017-09-04T12:51:08.346Z,15484
2017-09-04T12:51:12.560Z,19104
2017-09-04T12:51:16.760Z,21152
2017-09-04T12:51:20.834Z,21632
2017-09-04T12:51:25.052Z,17236
2017-09-04T12:51:29.155Z,13356
2017-09-04T12:51:32.998Z,11548
2017-09-04T12:51:37.207Z,11020
2017-09-04T12:51:41.284Z,11444
2017-09-04T12:51:45.384Z,12904
2017-09-04T12:51:49.338Z,15488
2017-09-04T12:51:53.554Z,18272
2017-09-04T12:51:57.648Z,20992
2017-09-04T12:52:01.868Z,23520
2017-09-04T12:52:05.850Z,26528
2017-09-04T12:52:10.178Z,32832
2017-09-04T12:52:14.147Z,39040
2017-09-04T12:52:18.349Z,43616
2017-09-04T12:52:22.570Z,47936
2017-09-04T12:52:26.774Z,50336
2017-09-04T12:52:30.629Z,50752
2017-09-04T12:52:34.853Z,51168
2017-09-04T12:52:39.190Z,51456
2017-09-04T12:52:43.410Z,51808
2017-09-04T12:52:47.505Z,52096
2017-09-04T12:52:51.604Z,52288
2017-09-04T12:52:55.805Z,52480
2017-09-04T12:52:59.891Z,52256
2017-09-04T12:53:04.184Z,52032
2017-09-04T12:53:08.394Z,52032
2017-09-04T12:53:12.494Z,52448
2017-09-04T12:53:16.826Z,52448
2017-09-04T12:53:20.924Z,52768
2017-09-04T12:53:25.268Z,52672
2017-09-04T12:53:29.360Z,52672
2017-09-04T12:53:33.566Z,52768
2017-09-04T12:53:38.024Z,53632
2017-09-04T12:53:42.272Z,53696
2017-09-04T12:53:46.490Z,54048
2017-09-04T12:53:50.439Z,54208
2017-09-04T12:53:54.516Z,54272
2017-09-04T12:53:58.461Z,54432
2017-09-04T12:54:02.517Z,54592
2017-09-04T12:54:06.717Z,54784
2017-09-04T12:54:10.914Z,55104
2017-09-04T12:54:15.117Z,55040
2017-09-04T12:54:19.327Z,55040
2017-09-04T12:54:23.429Z,55200
2017-09-04T12:54:27.630Z,55360
2017-09-04T12:54:32.004Z,55424
2017-09-04T12:54:36.462Z,55328
2017-09-04T12:54:40.581Z,55296
2017-09-04T12:54:44.540Z,55360
2017-09-04T12:54:48.631Z,55488
2017-09-04T12:54:52.711Z,55424
2017-09-04T12:54:56.806Z,55264
2017-09-04T12:55:00.895Z,55456
2017-09-04T12:55:04.989Z,55616
2017-09-04T12:55:09.215Z,55424
2017-09-04T12:55:13.313Z,55328
2017-09-04T12:55:17.259Z,55264
2017-09-04T12:55:21.588Z,55200
2017-09-04T12:55:25.936Z,54592
2017-09-04T12:55:30.027Z,54240
2017-09-04T12:55:33.965Z,54272
2017-09-04T12:55:38.048Z,54560
2017-09-04T12:55:42.386Z,54272
2017-09-04T12:55:46.466Z,53664
2017-09-04T12:55:50.807Z,54496
2017-09-04T12:55:54.896Z,52544
2017-09-04T12:55:58.711Z,50240
2017-09-04T12:56:02.663Z,51712
2017-09-04T12:56:06.992Z,53536
2017-09-04T12:56:10.958Z,53856
2017-09-04T12:56:15.291Z,54528
2017-09-04T12:56:19.260Z,54848
2017-09-04T12:56:23.333Z,54880
2017-09-04T12:56:27.179Z,54976
2017-09-04T12:56:31.135Z,54400
2017-09-04T12:56:35.602Z,54464
2017-09-04T12:56:39.925Z,54496
2017-09-04T12:56:44.126Z,54656
2017-09-04T12:56:48.593Z,54976
2017-09-04T12:56:52.818Z,55136
2017-09-04T12:56:57.025Z,55200
2017-09-04T12:57:01.230Z,55104
2017-09-04T12:57:05.298Z,55296
2017-09-04T12:57:09.502Z,55616
2017-09-04T12:57:13.824Z,55936
2017-09-04T12:57:18.029Z,56000
2017-09-04T12:57:22.108Z,55488
2017-09-04T12:57:26.173Z,55328
2017-09-04T12:57:30.382Z,53376
2017-09-04T12:57:34.342Z,52512
2017-09-04T12:57:38.680Z,54176
2017-09-04T12:57:42.619Z,54752
2017-09-04T12:57:46.706Z,52000
2017-09-04T12:57:50.802Z,45440
2017-09-04T12:57:54.989Z,31136
2017-09-04T12:57:59.337Z,32736
2017-09-04T12:58:03.425Z,42752
2017-09-04T12:58:07.390Z,49888
2017-09-04T12:58:11.596Z,52224
2017-09-04T12:58:15.705Z,52640
2017-09-04T12:58:19.678Z,52512
2017-09-04T12:58:23.766Z,52832
2017-09-04T12:58:27.729Z,54304
2017-09-04T12:58:32.076Z,54496
2017-09-04T12:58:36.163Z,54400
2017-09-04T12:58:40.361Z,55200
2017-09-04T12:58:44.187Z,55136
2017-09-04T12:58:48.260Z,56064
2017-09-04T12:58:52.467Z,55392
2017-09-04T12:58:56.291Z,55936
2017-09-04T12:59:00.248Z,56000
2017-09-04T12:59:04.083Z,55584
2017-09-04T12:59:08.407Z,56352
2017-09-04T12:59:12.365Z,56000
2017-09-04T12:59:16.332Z,55808
2017-09-04T12:59:20.035Z,55904
2017-09-04T12:59:24.106Z,55392
2017-09-04T12:59:28.326Z,55936
2017-09-04T12:59:32.283Z,55712
2017-09-04T12:59:36.502Z,44960
2017-09-04T12:59:40.712Z,50656
2017-09-04T12:59:44.928Z,30720
2017-09-04T12:59:48.763Z,26240
2017-09-04T12:59:52.588Z,10656
2017-09-04T12:59:56.786Z,9460
2017-09-04T13:00:00.878Z,9464
2017-09-04T13:00:05.235Z,9520
2017-09-04T13:00:09.210Z,9616
2017-09-04T13:00:13.184Z,11032
2017-09-04T13:00:17.139Z,34816
2017-09-04T13:00:21.347Z,52960
2017-09-04T13:00:25.555Z,55936
2017-09-04T13:00:30.020Z,55744
2017-09-04T13:00:34.349Z,55744
2017-09-04T13:00:38.554Z,55776
2017-09-04T13:00:42.633Z,55264
2017-09-04T13:00:47.106Z,55968
2017-09-04T13:00:51.442Z,55808
2017-09-04T13:00:55.661Z,55360
2017-09-04T13:00:59.494Z,55232
2017-09-04T13:01:03.712Z,55232
2017-09-04T13:01:07.659Z,54880
2017-09-04T13:01:11.734Z,55744
2017-09-04T13:01:16.062Z,55328
2017-09-04T13:01:20.023Z,55200
2017-09-04T13:01:23.967Z,55040
2017-09-04T13:01:28.042Z,55456
2017-09-04T13:01:32.135Z,55008
2017-09-04T13:01:36.090Z,55136
2017-09-04T13:01:39.813Z,55264
2017-09-04T13:01:44.029Z,55360
2017-09-04T13:01:47.867Z,55296
2017-09-04T13:01:52.188Z,54816
2017-09-04T13:01:56.261Z,55104
2017-09-04T13:02:00.460Z,54912
2017-09-04T13:02:05.015Z,55552
2017-09-04T13:02:09.222Z,54976
2017-09-04T13:02:13.300Z,55200
2017-09-04T13:02:17.405Z,54912
2017-09-04T13:02:21.479Z,54304
2017-09-04T13:02:25.703Z,54400
2017-09-04T13:02:29.790Z,55488
2017-09-04T13:02:33.977Z,53536
2017-09-04T13:02:38.065Z,53984
2017-09-04T13:02:42.285Z,55264
2017-09-04T13:02:46.596Z,55168
2017-09-04T13:02:50.687Z,55456
2017-09-04T13:02:54.894Z,55008
2017-09-04T13:02:58.987Z,55008
2017-09-04T13:03:02.710Z,54720
2017-09-04T13:03:07.029Z,54624
2017-09-04T13:03:11.113Z,54624
2017-09-04T13:03:15.300Z,55680
2017-09-04T13:03:19.649Z,55488
2017-09-04T13:03:23.988Z,55200
2017-09-04T13:03:27.700Z,54816
2017-09-04T13:03:31.892Z,55200
2017-09-04T13:03:36.093Z,54752
2017-09-04T13:03:40.323Z,54592
2017-09-04T13:03:44.280Z,54304
2017-09-04T13:03:48.499Z,55040
2017-09-04T13:03:52.696Z,54848
2017-09-04T13:03:56.790Z,54208
2017-09-04T13:04:00.879Z,54880
2017-09-04T13:04:05.538Z,54432
2017-09-04T13:04:09.625Z,55104
2017-09-04T13:04:13.966Z,54368
2017-09-04T13:04:18.172Z,54528
2017-09-04T13:04:22.249Z,54752
2017-09-04T13:04:26.077Z,54656
2017-09-04T13:04:30.404Z,54432
2017-09-04T13:04:34.496Z,54560
2017-09-04T13:04:38.335Z,54464
2017-09-04T13:04:42.529Z,54496
2017-09-04T13:04:46.772Z,53728
2017-09-04T13:04:50.688Z,54176
2017-09-04T13:04:54.667Z,54880
2017-09-04T13:04:58.500Z,54240
2017-09-04T13:05:02.585Z,54240
2017-09-04T13:05:06.919Z,54240
2017-09-04T13:05:11.004Z,54336
2017-09-04T13:05:15.335Z,53952
2017-09-04T13:05:19.426Z,53632
2017-09-04T13:05:23.752Z,54336
2017-09-04T13:05:27.445Z,53632
2017-09-04T13:05:32.104Z,54144
2017-09-04T13:05:36.206Z,54080
2017-09-04T13:05:40.280Z,53568
2017-09-04T13:05:44.236Z,52992
2017-09-04T13:05:48.316Z,53376
2017-09-04T13:05:52.538Z,53504
2017-09-04T13:05:56.635Z,53184
2017-09-04T13:06:01.094Z,53248
2017-09-04T13:06:05.173Z,52960
2017-09-04T13:06:09.672Z,53408
2017-09-04T13:06:13.772Z,53056
2017-09-04T13:06:17.848Z,52992
2017-09-04T13:06:22.056Z,52608
2017-09-04T13:06:26.286Z,53056
2017-09-04T13:06:30.623Z,53184
2017-09-04T13:06:34.840Z,52512
2017-09-04T13:06:39.189Z,53248
2017-09-04T13:06:43.135Z,52672
2017-09-04T13:06:46.947Z,52416
2017-09-04T13:06:51.162Z,52960
2017-09-04T13:06:55.111Z,53312
2017-09-04T13:06:59.348Z,53184
2017-09-04T13:07:03.428Z,52960
2017-09-04T13:07:07.248Z,52896
2017-09-04T13:07:11.454Z,52768
2017-09-04T13:07:15.672Z,53376
2017-09-04T13:07:19.757Z,53024
2017-09-04T13:07:23.954Z,53216
2017-09-04T13:07:28.023Z,53440
2017-09-04T13:07:31.990Z,52704
2017-09-04T13:07:36.197Z,53120
2017-09-04T13:07:40.418Z,52928
2017-09-04T13:07:44.367Z,53024
2017-09-04T13:07:48.498Z,52544
2017-09-04T13:07:52.585Z,53408
2017-09-04T13:07:56.662Z,52960
2017-09-04T13:08:00.750Z,53408
2017-09-04T13:08:05.313Z,52672
2017-09-04T13:08:09.522Z,52704
2017-09-04T13:08:13.484Z,52576
2017-09-04T13:08:17.679Z,52224
2017-09-04T13:08:22.016Z,51552
2017-09-04T13:08:26.031Z,51808
2017-09-04T13:08:30.254Z,51840
2017-09-04T13:08:34.212Z,51488
2017-09-04T13:08:38.182Z,52800
2017-09-04T13:08:42.386Z,52160
2017-09-04T13:08:46.478Z,52128
2017-09-04T13:08:50.427Z,52448
2017-09-04T13:08:54.643Z,52480
2017-09-04T13:08:58.972Z,52160
2017-09-04T13:09:03.287Z,52320
2017-09-04T13:09:07.361Z,52224
2017-09-04T13:09:11.705Z,52224
2017-09-04T13:09:16.027Z,51904
2017-09-04T13:09:20.121Z,51840
2017-09-04T13:09:24.211Z,52160
2017-09-04T13:09:28.425Z,52512
2017-09-04T13:09:32.766Z,52000
2017-09-04T13:09:37.098Z,51744
2017-09-04T13:09:41.181Z,51712
2017-09-04T13:09:45.135Z,52000
2017-09-04T13:09:49.211Z,52064
2017-09-04T13:09:53.170Z,52192
2017-09-04T13:09:57.254Z,51584
2017-09-04T13:10:01.327Z,49536
2017-09-04T13:10:05.407Z,51584
2017-09-04T13:10:09.377Z,51968
2017-09-04T13:10:13.709Z,48672
2017-09-04T13:10:17.902Z,38784
2017-09-04T13:10:22.118Z,46240
2017-09-04T13:10:26.199Z,36096
2017-09-04T13:10:30.152Z,25280
2017-09-04T13:10:34.118Z,25408
2017-09-04T13:10:38.327Z,26880
2017-09-04T13:10:42.668Z,33056
2017-09-04T13:10:46.875Z,41952
2017-09-04T13:10:50.942Z,22528
2017-09-04T13:10:55.034Z,29504
2017-09-04T13:10:58.999Z,27904
2017-09-04T13:11:03.378Z,18464
2017-09-04T13:11:07.337Z,29248
2017-09-04T13:11:11.441Z,43296
2017-09-04T13:11:15.527Z,26496
2017-09-04T13:11:19.740Z,13356
2017-09-04T13:11:23.833Z,11528
2017-09-04T13:11:27.916Z,10768
2017-09-04T13:11:31.994Z,10500
2017-09-04T13:11:35.959Z,10236
2017-09-04T13:11:40.186Z,10004
2017-09-04T13:11:44.505Z,9812
2017-09-04T13:11:48.598Z,9724
2017-09-04T13:11:52.443Z,9660
2017-09-04T13:11:56.400Z,9656
2017-09-04T13:12:00.107Z,9728
2017-09-04T13:12:04.188Z,9960
2017-09-04T13:12:08.136Z,10152
2017-09-04T13:12:12.462Z,10084
2017-09-04T13:12:16.930Z,10108
2017-09-04T13:12:21.018Z,10084
2017-09-04T13:12:25.352Z,9988
2017-09-04T13:12:29.433Z,9884
2017-09-04T13:12:33.645Z,9824
2017-09-04T13:12:37.745Z,9760
2017-09-04T13:12:41.844Z,9696
2017-09-04T13:12:46.188Z,9656
2017-09-04T13:12:49.893Z,9632
2017-09-04T13:12:54.229Z,9668
2017-09-04T13:12:58.178Z,9776
2017-09-04T13:13:02.260Z,9916
2017-09-04T13:13:06.087Z,10092
2017-09-04T13:13:10.311Z,10660
2017-09-04T13:13:14.642Z,11004
2017-09-04T13:13:18.599Z,11920
2017-09-04T13:13:22.690Z,11020
2017-09-04T13:13:26.890Z,10884
2017-09-04T13:13:31.237Z,10896
2017-09-04T13:13:35.322Z,10932
2017-09-04T13:13:39.402Z,11068
2017-09-04T13:13:43.498Z,11252
2017-09-04T13:13:47.199Z,11448
2017-09-04T13:13:51.162Z,11620
2017-09-04T13:13:55.255Z,11760
2017-09-04T13:13:59.217Z,11892
2017-09-04T13:14:03.315Z,12108
2017-09-04T13:14:07.525Z,12160
2017-09-04T13:14:11.622Z,12252
2017-09-04T13:14:15.594Z,12384
2017-09-04T13:14:19.439Z,12604
2017-09-04T13:14:23.279Z,13536
2017-09-04T13:14:27.500Z,14296
2017-09-04T13:14:31.718Z,14128
2017-09-04T13:14:35.923Z,13144
2017-09-04T13:14:39.765Z,13140
2017-09-04T13:14:43.739Z,13160
2017-09-04T13:14:47.578Z,13220
2017-09-04T13:14:51.670Z,13592
2017-09-04T13:14:55.752Z,14932
2017-09-04T13:15:00.233Z,15960
2017-09-04T13:15:04.780Z,15796
2017-09-04T13:15:08.744Z,16696
2017-09-04T13:15:12.573Z,22752
2017-09-04T13:15:16.921Z,29024
2017-09-04T13:15:20.901Z,35680
2017-09-04T13:15:24.863Z,44704
2017-09-04T13:15:29.077Z,48064
2017-09-04T13:15:33.537Z,48384
2017-09-04T13:15:37.626Z,47584
2017-09-04T13:15:41.583Z,34368
2017-09-04T13:15:45.538Z,41760
2017-09-04T13:15:49.613Z,43424
2017-09-04T13:15:53.818Z,49216
2017-09-04T13:15:57.901Z,42432
2017-09-04T13:16:02.113Z,8804
2017-09-04T13:16:06.331Z,9808
2017-09-04T13:16:10.539Z,8648
2017-09-04T13:16:14.746Z,8424
2017-09-04T13:16:19.087Z,8280
2017-09-04T13:16:23.035Z,8172
2017-09-04T13:16:26.997Z,8120
2017-09-04T13:16:31.334Z,8024
2017-09-04T13:16:35.424Z,7968
2017-09-04T13:16:39.373Z,7920
2017-09-04T13:16:43.478Z,7876
2017-09-04T13:16:47.307Z,7840
2017-09-04T13:16:51.524Z,7788
2017-09-04T13:16:55.611Z,7760
2017-09-04T13:16:59.574Z,7700
2017-09-04T13:17:03.778Z,7628
2017-09-04T13:17:07.852Z,7568
2017-09-04T13:17:11.815Z,7536
2017-09-04T13:17:15.901Z,7488
2017-09-04T13:17:19.976Z,7444
2017-09-04T13:17:24.060Z,7400
2017-09-04T13:17:27.904Z,7368
2017-09-04T13:17:31.740Z,7340
2017-09-04T13:17:35.710Z,7284
2017-09-04T13:17:39.935Z,7252
2017-09-04T13:17:44.016Z,7232
2017-09-04T13:17:47.966Z,7236
2017-09-04T13:17:51.804Z,7260
2017-09-04T13:17:55.754Z,7312
2017-09-04T13:17:59.945Z,7400
2017-09-04T13:18:04.324Z,7760
2017-09-04T13:18:08.416Z,8580
2017-09-04T13:18:12.373Z,15728
2017-09-04T13:18:16.328Z,9080
2017-09-04T13:18:20.301Z,8736
2017-09-04T13:18:24.402Z,9848
2017-09-04T13:18:28.610Z,8276
2017-09-04T13:18:32.707Z,7964
2017-09-04T13:18:36.925Z,7704
2017-09-04T13:18:41.141Z,7484
2017-09-04T13:18:45.109Z,7320
2017-09-04T13:18:49.187Z,7224
2017-09-04T13:18:53.022Z,7168
2017-09-04T13:18:57.232Z,7120
2017-09-04T13:19:01.569Z,7064
2017-09-04T13:19:05.672Z,7012
2017-09-04T13:19:09.641Z,6960
2017-09-04T13:19:13.979Z,6912
2017-09-04T13:19:18.185Z,6868
2017-09-04T13:19:22.255Z,6832
2017-09-04T13:19:26.324Z,6796
2017-09-04T13:19:30.424Z,6764
2017-09-04T13:19:34.399Z,6744
2017-09-04T13:19:38.231Z,6720
2017-09-04T13:19:42.434Z,6708
2017-09-04T13:19:46.376Z,6708
2017-09-04T13:19:50.470Z,6716
2017-09-04T13:19:54.693Z,6720
2017-09-04T13:19:58.654Z,6716
2017-09-04T13:20:02.724Z,6716
2017-09-04T13:20:07.056Z,6720
2017-09-04T13:20:10.882Z,6724
2017-09-04T13:20:15.075Z,6732
2017-09-04T13:20:19.156Z,6744
2017-09-04T13:20:23.108Z,6756
2017-09-04T13:20:27.314Z,6780
2017-09-04T13:20:31.405Z,6804
2017-09-04T13:20:35.370Z,6824
2017-09-04T13:20:39.574Z,6856
2017-09-04T13:20:43.542Z,6880
2017-09-04T13:20:47.875Z,6908
2017-09-04T13:20:51.972Z,6936
2017-09-04T13:20:56.186Z,6968
2017-09-04T13:21:00.415Z,6996
2017-09-04T13:21:04.916Z,7028
2017-09-04T13:21:09.250Z,7048
2017-09-04T13:21:13.708Z,7080
2017-09-04T13:21:17.788Z,7112
2017-09-04T13:21:22.124Z,7164
2017-09-04T13:21:25.959Z,7204
2017-09-04T13:21:30.179Z,7272
2017-09-04T13:21:34.510Z,7372
2017-09-04T13:21:38.715Z,7504
2017-09-04T13:21:42.683Z,7684
2017-09-04T13:21:46.784Z,7936
2017-09-04T13:21:51.137Z,8312
2017-09-04T13:21:54.972Z,8752
2017-09-04T13:21:59.053Z,9324
2017-09-04T13:22:03.301Z,10060
2017-09-04T13:22:07.249Z,10732
2017-09-04T13:22:11.082Z,11484
2017-09-04T13:22:15.287Z,12592
2017-09-04T13:22:19.236Z,14992
2017-09-04T13:22:23.205Z,20512
2017-09-04T13:22:27.404Z,31712
2017-09-04T13:22:31.486Z,42400
2017-09-04T13:22:35.451Z,48192
2017-09-04T13:22:39.400Z,51104
2017-09-04T13:22:43.607Z,51392
2017-09-04T13:22:47.811Z,51168
2017-09-04T13:22:51.771Z,51008
2017-09-04T13:22:55.733Z,32288
2017-09-04T13:22:59.560Z,20352
2017-09-04T13:23:03.774Z,9548
2017-09-04T13:23:07.739Z,9520
2017-09-04T13:23:11.820Z,9576
2017-09-04T13:23:15.912Z,9620
2017-09-04T13:23:19.870Z,9708
2017-09-04T13:23:23.954Z,9816
2017-09-04T13:23:28.040Z,9976
2017-09-04T13:23:32.132Z,10900
2017-09-04T13:23:36.225Z,16800
2017-09-04T13:23:40.194Z,37600
2017-09-04T13:23:44.519Z,50528
2017-09-04T13:23:48.476Z,49120
2017-09-04T13:23:52.306Z,48800
2017-09-04T13:23:56.385Z,48416
2017-09-04T13:24:00.209Z,49792
2017-09-04T13:24:04.781Z,49632
2017-09-04T13:24:08.879Z,49472
2017-09-04T13:24:12.580Z,49504
2017-09-04T13:24:16.782Z,49280
2017-09-04T13:24:21.112Z,49120
2017-09-04T13:24:25.195Z,48640
2017-09-04T13:24:29.526Z,32096
2017-09-04T13:24:33.491Z,29504
2017-09-04T13:24:37.706Z,43136
2017-09-04T13:24:41.841Z,41728
2017-09-04T13:24:45.802Z,48000
2017-09-04T13:24:50.006Z,49952
2017-09-04T13:24:53.960Z,49600
2017-09-04T13:24:58.033Z,48288
2017-09-04T13:25:02.478Z,49056
2017-09-04T13:25:06.694Z,50304
2017-09-04T13:25:10.787Z,50432
2017-09-04T13:25:15.006Z,50368
2017-09-04T13:25:19.341Z,50496
2017-09-04T13:25:23.422Z,50624
2017-09-04T13:25:27.626Z,48992
2017-09-04T13:25:31.850Z,34784
2017-09-04T13:25:36.199Z,34880
2017-09-04T13:25:40.295Z,35776
2017-09-04T13:25:44.373Z,33664
2017-09-04T13:25:48.326Z,30240
2017-09-04T13:25:52.411Z,43328
2017-09-04T13:25:56.499Z,48064
2017-09-04T13:26:00.837Z,47168
2017-09-04T13:26:04.798Z,48576
2017-09-04T13:26:08.757Z,48704
2017-09-04T13:26:12.712Z,48544
2017-09-04T13:26:16.922Z,48608
2017-09-04T13:26:21.126Z,48512
2017-09-04T13:26:25.095Z,48480
2017-09-04T13:26:28.966Z,48000
2017-09-04T13:26:33.320Z,46880
2017-09-04T13:26:37.638Z,46912
2017-09-04T13:26:42.102Z,47232
2017-09-04T13:26:46.183Z,46176
2017-09-04T13:26:50.396Z,46752
2017-09-04T13:26:54.478Z,47232
2017-09-04T13:26:58.688Z,47296
2017-09-04T13:27:02.887Z,47328
2017-09-04T13:27:06.846Z,46752
2017-09-04T13:27:10.806Z,45888
2017-09-04T13:27:15.260Z,45088
2017-09-04T13:27:19.511Z,46368
2017-09-04T13:27:23.458Z,46912
2017-09-04T13:27:27.278Z,47072
2017-09-04T13:27:31.244Z,46976
2017-09-04T13:27:35.337Z,47040
2017-09-04T13:27:39.560Z,47104
2017-09-04T13:27:43.886Z,46784
2017-09-04T13:27:47.851Z,46816
2017-09-04T13:27:51.821Z,46752
2017-09-04T13:27:56.169Z,46784
2017-09-04T13:28:00.505Z,46624
2017-09-04T13:28:04.718Z,46752
2017-09-04T13:28:08.921Z,46496
2017-09-04T13:28:12.759Z,46528
2017-09-04T13:28:16.835Z,46368
2017-09-04T13:28:20.787Z,45600
2017-09-04T13:28:25.004Z,46048
2017-09-04T13:28:29.104Z,46272
2017-09-04T13:28:32.944Z,46272
2017-09-04T13:28:37.026Z,46144
2017-09-04T13:28:41.360Z,46112
2017-09-04T13:28:45.322Z,46368
2017-09-04T13:28:49.280Z,46432
2017-09-04T13:28:53.591Z,46496
2017-09-04T13:28:57.675Z,46368
2017-09-04T13:29:01.639Z,46464
2017-09-04T13:29:05.976Z,45248
2017-09-04T13:29:10.299Z,37984
2017-09-04T13:29:14.638Z,22016
2017-09-04T13:29:18.861Z,9484
2017-09-04T13:29:23.247Z,10636
2017-09-04T13:29:27.209Z,10868
2017-09-04T13:29:31.420Z,10456
2017-09-04T13:29:35.491Z,11252
2017-09-04T13:29:39.571Z,12988
2017-09-04T13:29:43.787Z,14192
2017-09-04T13:29:48.140Z,14260
2017-09-04T13:29:51.986Z,17408
2017-09-04T13:29:56.207Z,26464
2017-09-04T13:30:00.299Z,38272
2017-09-04T13:30:04.754Z,45120
2017-09-04T13:30:08.859Z,45312
2017-09-04T13:30:12.823Z,44960
2017-09-04T13:30:17.171Z,44832
2017-09-04T13:30:21.118Z,44832
2017-09-04T13:30:25.342Z,44544
2017-09-04T13:30:29.714Z,44224
2017-09-04T13:30:33.793Z,44960
2017-09-04T13:30:37.887Z,44896
2017-09-04T13:30:41.983Z,45536
2017-09-04T13:30:46.459Z,39744
2017-09-04T13:30:50.283Z,24256
2017-09-04T13:30:54.615Z,19744
2017-09-04T13:30:58.456Z,19616
2017-09-04T13:31:02.672Z,27680
2017-09-04T13:31:07.030Z,44832
2017-09-04T13:31:10.994Z,44736
2017-09-04T13:31:15.207Z,43488
2017-09-04T13:31:19.048Z,35040
2017-09-04T13:31:23.139Z,24512
2017-09-04T13:31:27.369Z,33696
2017-09-04T13:31:31.697Z,41024
2017-09-04T13:31:35.760Z,43456
2017-09-04T13:31:39.827Z,43424
2017-09-04T13:31:44.037Z,43104
2017-09-04T13:31:47.996Z,42784
2017-09-04T13:31:52.071Z,43040
2017-09-04T13:31:56.156Z,42432
2017-09-04T13:32:00.254Z,42528
2017-09-04T13:32:04.460Z,42784
2017-09-04T13:32:08.540Z,42240
2017-09-04T13:32:12.625Z,42528
2017-09-04T13:32:16.717Z,42368
2017-09-04T13:32:20.955Z,42464
2017-09-04T13:32:25.045Z,42624
2017-09-04T13:32:29.135Z,42336
2017-09-04T13:32:33.373Z,42368
2017-09-04T13:32:37.591Z,42432
2017-09-04T13:32:41.796Z,42304
2017-09-04T13:32:46.147Z,42656
2017-09-04T13:32:50.368Z,42368
2017-09-04T13:32:54.328Z,41920
2017-09-04T13:32:58.519Z,42272
2017-09-04T13:33:03.008Z,42336
2017-09-04T13:33:07.106Z,42144
2017-09-04T13:33:11.189Z,42176
2017-09-04T13:33:15.397Z,41920
2017-09-04T13:33:19.351Z,41920
2017-09-04T13:33:23.446Z,42144
2017-09-04T13:33:27.520Z,41920
2017-09-04T13:33:31.857Z,41984
2017-09-04T13:33:35.716Z,41920
2017-09-04T13:33:39.674Z,41856
2017-09-04T13:33:43.377Z,41344
2017-09-04T13:33:47.593Z,41600
2017-09-04T13:33:51.686Z,41056
2017-09-04T13:33:55.897Z,41696